UKDE/OZH METAR and TAF weather

Enter ICAO airport designator
Station Type Date Time Source
UKDE METAR 2020/09/22 01:00 UTC NOAA

UKDE 220100Z 35001MPS CAVOK 07/M00 Q1023 R02R/090070 NOSIG


Station Type Date Time Source
UKDE Decoded METAR 2020/09/22 01:00 UTC NOAA

Zaporizhzhia / Mokraya, Ukraine (UKDE) 47-52-02N 035-18-59E
Sep 21, 2020 - 09:00 PM EDT / 2020.09.22 0100 UTC
Wind: from the N (350 degrees) at 2 MPH (2 KT):0
Visibility: greater than 7 mile(s):0
Temperature: 44 F (7 C)
Dew Point: 32 F (0 C)
Relative Humidity: 60%
Pressure (altimeter): 30.21 in. Hg (1023 hPa)
ob: UKDE 220100Z 35001MPS CAVOK 07/M00 Q1023 R02R/090070 NOSIG
cycle: 1

Station Type Date Time Source
UKDE TAF 2020/06/03 15:15 UTC NOAA

TAF
AMD TAF
AMD UKDE 031510Z 0315/0524 21007MPS 9999 BKN030CB
TEMPO 0315/0318 VRB15G20MPS 0300 +TSRAGR SQ BKN007 BKN013CB

Example: see airport list